sensor_id;sensor_type;location;lat;lon;timestamp;pressure;altitude;pressure_sealevel;temperature;humidity
52105;BME280;38103;42.776;23.112;2023-12-14T00:02:22;92982.78;;;6.69;100.00
52105;BME280;38103;42.776;23.112;2023-12-14T00:04:47;92975.81;;;6.63;100.00
52105;BME280;38103;42.776;23.112;2023-12-14T00:07:13;92972.06;;;6.58;100.00
52105;BME280;38103;42.776;23.112;2023-12-14T00:09:40;92967.84;;;6.57;100.00
52105;BME280;38103;42.776;23.112;2023-12-14T00:12:06;92972.53;;;6.55;100.00
52105;BME280;38103;42.776;23.112;2023-12-14T00:14:31;92972.53;;;6.55;100.00
52105;BME280;38103;42.776;23.112;2023-12-14T00:16:56;92964.09;;;6.53;100.00
52105;BME280;38103;42.776;23.112;2023-12-14T00:19:24;92964.09;;;6.53;100.00
52105;BME280;38103;42.776;23.112;2023-12-14T00:21:49;92961.56;;;6.58;100.00
52105;BME280;38103;42.776;23.112;2023-12-14T00:24:15;92959.50;;;6.61;100.00
52105;BME280;38103;42.776;23.112;2023-12-14T00:26:40;92959.97;;;6.57;100.00
52105;BME280;38103;42.776;23.112;2023-12-14T00:29:05;92961.09;;;6.62;100.00
52105;BME280;38103;42.776;23.112;2023-12-14T00:31:31;92959.97;;;6.57;100.00
52105;BME280;38103;42.776;23.112;2023-12-14T00:33:56;92959.97;;;6.57;100.00
52105;BME280;38103;42.776;23.112;2023-12-14T00:36:22;92951.16;;;6.64;100.00
52105;BME280;38103;42.776;23.112;2023-12-14T00:38:47;92952.97;;;6.63;100.00
52105;BME280;38103;42.776;23.112;2023-12-14T00:41:12;92961.00;;;6.56;100.00
52105;BME280;38103;42.776;23.112;2023-12-14T00:43:38;92960.91;;;6.51;100.00
52105;BME280;38103;42.776;23.112;2023-12-14T00:46:03;92964.47;;;6.45;100.00
52105;BME280;38103;42.776;23.112;2023-12-14T00:48:29;92963.81;;;6.37;100.00
52105;BME280;38103;42.776;23.112;2023-12-14T00:50:54;92970.31;;;6.35;100.00
52105;BME280;38103;42.776;23.112;2023-12-14T00:53:19;92969.59;;;6.40;100.00
52105;BME280;38103;42.776;23.112;2023-12-14T00:55:45;92968.81;;;6.39;100.00
52105;BME280;38103;42.776;23.112;2023-12-14T00:58:11;92970.75;;;6.44;100.00
52105;BME280;38103;42.776;23.112;2023-12-14T01:00:38;92961.84;;;6.45;100.00
52105;BME280;38103;42.776;23.112;2023-12-14T01:03:03;92965.00;;;6.47;100.00
52105;BME280;38103;42.776;23.112;2023-12-14T01:05:29;92960.25;;;6.44;100.00
52105;BME280;38103;42.776;23.112;2023-12-14T01:07:54;92960.16;;;6.39;100.00
52105;BME280;38103;42.776;23.112;2023-12-14T01:10:19;92963.44;;;6.46;100.00
52105;BME280;38103;42.776;23.112;2023-12-14T01:12:45;92956.59;;;6.45;100.00
52105;BME280;38103;42.776;23.112;2023-12-14T01:15:10;92960.25;;;6.44;100.00
52105;BME280;38103;42.776;23.112;2023-12-14T01:17:36;92959.09;;;6.40;100.00
52105;BME280;38103;42.776;23.112;2023-12-14T01:20:05;92963.44;;;6.46;100.00
52105;BME280;38103;42.776;23.112;2023-12-14T01:22:31;92961.38;;;6.48;100.00
52105;BME280;38103;42.776;23.112;2023-12-14T01:24:56;92957.94;;;6.47;100.00
52105;BME280;38103;42.776;23.112;2023-12-14T01:27:21;92958.50;;;6.50;100.00
52105;BME280;38103;42.776;23.112;2023-12-14T01:29:47;92951.34;;;6.45;100.00
52105;BME280;38103;42.776;23.112;2023-12-14T01:32:12;92950.88;;;6.48;100.00
52105;BME280;38103;42.776;23.112;2023-12-14T01:34:37;92954.84;;;6.51;100.00
52105;BME280;38103;42.776;23.112;2023-12-14T01:37:03;92946.28;;;6.55;100.00
52105;BME280;38103;42.776;23.112;2023-12-14T01:39:28;92948.91;;;6.55;100.00
52105;BME280;38103;42.776;23.112;2023-12-14T01:41:54;92919.16;;;6.37;100.00
52105;BME280;38103;42.776;23.112;2023-12-14T01:44:19;92948.59;;;6.52;100.00
52105;BME280;38103;42.776;23.112;2023-12-14T01:46:44;92937.09;;;6.41;100.00
52105;BME280;38103;42.776;23.112;2023-12-14T01:49:10;92946.53;;;6.42;100.00
52105;BME280;38103;42.776;23.112;2023-12-14T01:51:35;92926.28;;;6.25;100.00
52105;BME280;38103;42.776;23.112;2023-12-14T01:54:00;92939.09;;;6.09;100.00
52105;BME280;38103;42.776;23.112;2023-12-14T01:56:26;92939.53;;;6.06;100.00
52105;BME280;38103;42.776;23.112;2023-12-14T01:58:51;92932.16;;;6.03;100.00
52105;BME280;38103;42.776;23.112;2023-12-14T02:01:28;92928.72;;;5.90;100.00
52105;BME280;38103;42.776;23.112;2023-12-14T02:04:00;92939.59;;;5.82;100.00
52105;BME280;38103;42.776;23.112;2023-12-14T02:06:26;92926.81;;;5.74;100.00
52105;BME280;38103;42.776;23.112;2023-12-14T02:08:52;92934.56;;;5.68;100.00
52105;BME280;38103;42.776;23.112;2023-12-14T02:11:17;92934.69;;;5.62;100.00
52105;BME280;38103;42.776;23.112;2023-12-14T02:13:43;92934.78;;;5.55;100.00
52105;BME280;38103;42.776;23.112;2023-12-14T02:16:08;92930.00;;;5.52;100.00
52105;BME280;38103;42.776;23.112;2023-12-14T02:18:34;92937.44;;;5.43;100.00
52105;BME280;38103;42.776;23.112;2023-12-14T02:21:00;92944.81;;;5.34;100.00
52105;BME280;38103;42.776;23.112;2023-12-14T02:23:25;92897.84;;;4.96;100.00
52105;BME280;38103;42.776;23.112;2023-12-14T02:25:51;92943.00;;;5.22;100.00
52105;BME280;38103;42.776;23.112;2023-12-14T02:28:16;92949.69;;;5.18;100.00
52105;BME280;38103;42.776;23.112;2023-12-14T02:30:41;92944.47;;;5.18;100.00
52105;BME280;38103;42.776;23.112;2023-12-14T02:33:07;92947.88;;;5.19;100.00
52105;BME280;38103;42.776;23.112;2023-12-14T02:35:33;92907.44;;;5.02;100.00
52105;BME280;38103;42.776;23.112;2023-12-14T02:37:58;92944.13;;;5.14;100.00
52105;BME280;38103;42.776;23.112;2023-12-14T02:40:24;92940.25;;;5.17;100.00
52105;BME280;38103;42.776;23.112;2023-12-14T02:42:49;92947.88;;;5.19;100.00
52105;BME280;38103;42.776;23.112;2023-12-14T02:45:14;92935.56;;;5.07;100.00
52105;BME280;38103;42.776;23.112;2023-12-14T02:47:40;92936.94;;;5.10;100.00
52105;BME280;38103;42.776;23.112;2023-12-14T02:50:05;92940.69;;;5.14;100.00
52105;BME280;38103;42.776;23.112;2023-12-14T02:52:31;92922.22;;;5.09;100.00
52105;BME280;38103;42.776;23.112;2023-12-14T02:54:56;92939.88;;;5.01;100.00
52105;BME280;38103;42.776;23.112;2023-12-14T02:57:22;92919.16;;;5.00;100.00
52105;BME280;38103;42.776;23.112;2023-12-14T02:59:47;92931.59;;;5.05;100.00
52105;BME280;38103;42.776;23.112;2023-12-14T03:02:12;92927.13;;;5.05;100.00
52105;BME280;38103;42.776;23.112;2023-12-14T03:04:38;92930.09;;;5.09;100.00
52105;BME280;38103;42.776;23.112;2023-12-14T03:07:06;92926.34;;;5.05;100.00
52105;BME280;38103;42.776;23.112;2023-12-14T03:09:33;92923.72;;;5.05;100.00
52105;BME280;38103;42.776;23.112;2023-12-14T03:11:59;92923.03;;;5.09;100.00
52105;BME280;38103;42.776;23.112;2023-12-14T03:14:25;92915.38;;;5.08;100.00
52105;BME280;38103;42.776;23.112;2023-12-14T03:16:51;92888.72;;;4.87;100.00
52105;BME280;38103;42.776;23.112;2023-12-14T03:19:16;92920.19;;;5.11;100.00
52105;BME280;38103;42.776;23.112;2023-12-14T03:21:42;92910.88;;;5.15;100.00
52105;BME280;38103;42.776;23.112;2023-12-14T03:24:08;92907.22;;;5.16;100.00
52105;BME280;38103;42.776;23.112;2023-12-14T03:26:34;92907.56;;;5.20;100.00
52105;BME280;38103;42.776;23.112;2023-12-14T03:29:00;92880.06;;;4.98;100.00
52105;BME280;38103;42.776;23.112;2023-12-14T03:31:25;92905.88;;;5.25;100.00
52105;BME280;38103;42.776;23.112;2023-12-14T03:33:51;92911.34;;;5.36;100.00
52105;BME280;38103;42.776;23.112;2023-12-14T03:36:16;92904.84;;;5.51;100.00
52105;BME280;38103;42.776;23.112;2023-12-14T03:38:41;92899.34;;;5.52;100.00
52105;BME280;38103;42.776;23.112;2023-12-14T03:41:07;92890.22;;;5.55;100.00
52105;BME280;38103;42.776;23.112;2023-12-14T03:43:32;92881.09;;;5.57;100.00
52105;BME280;38103;42.776;23.112;2023-12-14T03:45:58;92884.19;;;5.66;100.00
52105;BME280;38103;42.776;23.112;2023-12-14T03:48:23;92881.44;;;5.73;100.00
52105;BME280;38103;42.776;23.112;2023-12-14T03:50:48;92879.25;;;5.82;100.00
52105;BME280;38103;42.776;23.112;2023-12-14T03:53:14;92884.31;;;6.01;100.00
52105;BME280;38103;42.776;23.112;2023-12-14T03:55:39;92882.50;;;6.13;100.00
52105;BME280;38103;42.776;23.112;2023-12-14T03:58:04;92869.38;;;6.13;100.00
52105;BME280;38103;42.776;23.112;2023-12-14T04:00:30;92858.69;;;6.32;100.00
52105;BME280;38103;42.776;23.112;2023-12-14T04:02:55;92875.75;;;6.47;100.00
52105;BME280;38103;42.776;23.112;2023-12-14T04:05:21;92882.50;;;6.72;100.00
52105;BME280;38103;42.776;23.112;2023-12-14T04:07:46;92893.97;;;7.00;100.00
52105;BME280;38103;42.776;23.112;2023-12-14T04:10:12;92879.94;;;7.46;100.00
52105;BME280;38103;42.776;23.112;2023-12-14T04:12:39;92846.91;;;7.56;100.00
52105;BME280;38103;42.776;23.112;2023-12-14T04:15:06;92893.84;;;8.04;100.00
52105;BME280;38103;42.776;23.112;2023-12-14T04:17:32;92881.97;;;8.52;100.00
52105;BME280;38103;42.776;23.112;2023-12-14T04:19:58;92842.31;;;8.64;100.00
52105;BME280;38103;42.776;23.112;2023-12-14T04:22:23;92882.75;;;9.08;100.00
52105;BME280;38103;42.776;23.112;2023-12-14T04:24:50;92880.91;;;9.46;100.00
52105;BME280;38103;42.776;23.112;2023-12-14T04:27:15;92876.75;;;9.56;100.00
52105;BME280;38103;42.776;23.112;2023-12-14T04:29:40;92871.09;;;9.85;100.00
52105;BME280;38103;42.776;23.112;2023-12-14T04:32:06;92871.16;;;10.01;100.00
52105;BME280;38103;42.776;23.112;2023-12-14T04:34:31;92871.22;;;10.11;100.00
52105;BME280;38103;42.776;23.112;2023-12-14T04:36:57;92871.28;;;10.27;87.47
52105;BME280;38103;42.776;23.112;2023-12-14T04:39:26;92875.28;;;10.45;82.93
52105;BME280;38103;42.776;23.112;2023-12-14T04:41:52;92884.63;;;10.69;78.96
52105;BME280;38103;42.776;23.112;2023-12-14T04:44:18;92890.72;;;10.85;78.22
52105;BME280;38103;42.776;23.112;2023-12-14T04:46:44;92889.94;;;11.11;75.05
52105;BME280;38103;42.776;23.112;2023-12-14T04:49:09;92881.47;;;11.09;75.82
52105;BME280;38103;42.776;23.112;2023-12-14T04:51:35;92888.38;;;11.10;75.63
52105;BME280;38103;42.776;23.112;2023-12-14T04:54:00;92893.13;;;11.02;76.87
52105;BME280;38103;42.776;23.112;2023-12-14T04:56:25;92894.69;;;10.93;77.27
52105;BME280;38103;42.776;23.112;2023-12-14T04:58:51;92892.81;;;10.67;76.88
52105;BME280;38103;42.776;23.112;2023-12-14T05:01:16;92899.72;;;10.09;78.86
52105;BME280;38103;42.776;23.112;2023-12-14T05:03:42;92895.09;;;9.35;82.78
52105;BME280;38103;42.776;23.112;2023-12-14T05:06:07;92895.31;;;8.95;86.08
52105;BME280;38103;42.776;23.112;2023-12-14T05:08:32;92888.31;;;8.56;89.30
52105;BME280;38103;42.776;23.112;2023-12-14T05:10:58;92899.84;;;8.22;92.52
52105;BME280;38103;42.776;23.112;2023-12-14T05:13:24;92897.84;;;7.89;94.32
52105;BME280;38103;42.776;23.112;2023-12-14T05:15:50;92897.38;;;7.53;100.00
52105;BME280;38103;42.776;23.112;2023-12-14T05:18:16;92903.06;;;7.44;100.00
52105;BME280;38103;42.776;23.112;2023-12-14T05:20:42;92895.09;;;7.39;100.00
52105;BME280;38103;42.776;23.112;2023-12-14T05:23:07;92897.72;;;7.39;100.00
52105;BME280;38103;42.776;23.112;2023-12-14T05:25:32;92902.63;;;7.53;100.00
52105;BME280;38103;42.776;23.112;2023-12-14T05:27:58;92907.56;;;7.66;100.00
52105;BME280;38103;42.776;23.112;2023-12-14T05:30:23;92906.66;;;7.78;100.00
52105;BME280;38103;42.776;23.112;2023-12-14T05:32:48;92900.97;;;7.86;100.00
52105;BME280;38103;42.776;23.112;2023-12-14T05:35:14;92889.41;;;7.87;100.00
52105;BME280;38103;42.776;23.112;2023-12-14T05:37:39;92903.56;;;8.03;100.00
52105;BME280;38103;42.776;23.112;2023-12-14T05:40:07;92903.06;;;8.07;100.00
52105;BME280;38103;42.776;23.112;2023-12-14T05:42:32;92905.53;;;8.13;100.00
52105;BME280;38103;42.776;23.112;2023-12-14T05:44:58;92915.63;;;8.22;100.00
52105;BME280;38103;42.776;23.112;2023-12-14T05:47:23;92908.75;;;8.21;100.00
52105;BME280;38103;42.776;23.112;2023-12-14T05:49:50;92932.19;;;8.22;99.55
52105;BME280;38103;42.776;23.112;2023-12-14T05:52:15;92903.00;;;8.24;99.23
52105;BME280;38103;42.776;23.112;2023-12-14T05:54:41;92920.38;;;8.25;98.69
52105;BME280;38103;42.776;23.112;2023-12-14T05:57:06;92926.22;;;8.27;98.62
52105;BME280;38103;42.776;23.112;2023-12-14T05:59:31;92916.25;;;8.29;97.98
52105;BME280;38103;42.776;23.112;2023-12-14T06:02:00;92889.66;;;8.08;97.59
52105;BME280;38103;42.776;23.112;2023-12-14T06:04:27;92925.47;;;8.32;97.70
52105;BME280;38103;42.776;23.112;2023-12-14T06:06:52;92923.41;;;8.34;97.40
52105;BME280;38103;42.776;23.112;2023-12-14T06:09:18;92927.38;;;8.36;96.74
52105;BME280;38103;42.776;23.112;2023-12-14T06:11:47;92891.25;;;8.09;97.24
52105;BME280;38103;42.776;23.112;2023-12-14T06:14:12;92940.97;;;8.28;97.43
52105;BME280;38103;42.776;23.112;2023-12-14T06:16:37;92934.13;;;8.27;97.86
52105;BME280;38103;42.776;23.112;2023-12-14T06:19:03;92928.84;;;8.27;97.70
52105;BME280;38103;42.776;23.112;2023-12-14T06:21:28;92945.75;;;8.31;97.48
52105;BME280;38103;42.776;23.112;2023-12-14T06:23:55;92937.31;;;8.29;97.13
52105;BME280;38103;42.776;23.112;2023-12-14T06:26:20;92945.75;;;8.31;97.51
52105;BME280;38103;42.776;23.112;2023-12-14T06:28:46;92945.75;;;8.31;97.49
52105;BME280;38103;42.776;23.112;2023-12-14T06:31:13;92950.00;;;8.32;97.31
52105;BME280;38103;42.776;23.112;2023-12-14T06:33:41;92955.78;;;8.34;96.87
52105;BME280;38103;42.776;23.112;2023-12-14T06:36:08;92964.25;;;8.36;96.73
52105;BME280;38103;42.776;23.112;2023-12-14T06:38:33;92962.16;;;8.38;96.16
52105;BME280;38103;42.776;23.112;2023-12-14T06:40:59;92920.03;;;8.16;95.59
52105;BME280;38103;42.776;23.112;2023-12-14T06:43:25;92973.28;;;8.46;95.56
52105;BME280;38103;42.776;23.112;2023-12-14T06:45:50;92971.84;;;8.55;95.50
52105;BME280;38103;42.776;23.112;2023-12-14T06:48:15;92968.78;;;8.64;94.86
52105;BME280;38103;42.776;23.112;2023-12-14T06:50:41;92965.13;;;8.65;94.49
52105;BME280;38103;42.776;23.112;2023-12-14T06:53:06;92964.16;;;8.71;93.99
52105;BME280;38103;42.776;23.112;2023-12-14T06:55:31;92953.41;;;8.78;93.33
52105;BME280;38103;42.776;23.112;2023-12-14T06:57:57;92951.56;;;8.78;93.15
52105;BME280;38103;42.776;23.112;2023-12-14T07:00:22;92959.75;;;8.82;92.55
52105;BME280;38103;42.776;23.112;2023-12-14T07:02:47;92960.88;;;8.86;92.88
52105;BME280;38103;42.776;23.112;2023-12-14T07:05:13;92971.19;;;8.93;92.17
52105;BME280;38103;42.776;23.112;2023-12-14T07:07:38;92969.69;;;9.02;91.85
52105;BME280;38103;42.776;23.112;2023-12-14T07:10:04;92965.81;;;9.10;90.73
52105;BME280;38103;42.776;23.112;2023-12-14T07:12:30;92970.38;;;9.20;89.92
52105;BME280;38103;42.776;23.112;2023-12-14T07:14:55;92971.00;;;9.27;89.25
52105;BME280;38103;42.776;23.112;2023-12-14T07:17:20;92988.50;;;9.39;88.65
52105;BME280;38103;42.776;23.112;2023-12-14T07:19:46;92964.75;;;9.39;88.44
52105;BME280;38103;42.776;23.112;2023-12-14T07:22:11;92977.81;;;9.56;88.04
52105;BME280;38103;42.776;23.112;2023-12-14T07:24:36;92977.59;;;9.63;87.50
52105;BME280;38103;42.776;23.112;2023-12-14T07:27:02;92968.16;;;9.72;87.61
52105;BME280;38103;42.776;23.112;2023-12-14T07:29:28;92978.25;;;9.81;87.00
52105;BME280;38103;42.776;23.112;2023-12-14T07:31:53;92982.50;;;9.87;85.90
52105;BME280;38103;42.776;23.112;2023-12-14T07:34:18;92999.72;;;9.95;85.35
52105;BME280;38103;42.776;23.112;2023-12-14T07:36:45;93007.97;;;10.04;85.04
52105;BME280;38103;42.776;23.112;2023-12-14T07:39:10;93014.00;;;9.94;81.37
52105;BME280;38103;42.776;23.112;2023-12-14T07:41:36;93009.94;;;9.81;81.00
52105;BME280;38103;42.776;23.112;2023-12-14T07:44:01;93004.03;;;9.68;82.08
52105;BME280;38103;42.776;23.112;2023-12-14T07:46:27;93013.88;;;9.45;82.22
52105;BME280;38103;42.776;23.112;2023-12-14T07:48:52;93019.91;;;9.13;84.42
52105;BME280;38103;42.776;23.112;2023-12-14T07:51:18;93015.03;;;8.99;85.17
52105;BME280;38103;42.776;23.112;2023-12-14T07:53:43;93024.28;;;8.79;87.10
52105;BME280;38103;42.776;23.112;2023-12-14T07:56:09;93010.25;;;8.74;88.28
52105;BME280;38103;42.776;23.112;2023-12-14T07:58:34;93002.03;;;8.47;89.72
52105;BME280;38103;42.776;23.112;2023-12-14T08:00:59;93017.53;;;8.44;90.47
52105;BME280;38103;42.776;23.112;2023-12-14T08:03:25;93021.91;;;8.55;90.67
52105;BME280;38103;42.776;23.112;2023-12-14T08:05:50;93025.22;;;8.68;91.63
52105;BME280;38103;42.776;23.112;2023-12-14T08:08:16;93029.28;;;8.76;90.40
52105;BME280;38103;42.776;23.112;2023-12-14T08:10:41;93029.28;;;8.76;91.40
52105;BME280;38103;42.776;23.112;2023-12-14T08:13:07;93033.38;;;8.89;90.27
52105;BME280;38103;42.776;23.112;2023-12-14T08:15:32;93032.38;;;8.95;89.76
52105;BME280;38103;42.776;23.112;2023-12-14T08:17:57;93029.31;;;9.03;89.85
52105;BME280;38103;42.776;23.112;2023-12-14T08:20:23;93036.78;;;9.12;91.20
52105;BME280;38103;42.776;23.112;2023-12-14T08:22:48;93024.44;;;9.18;93.24
52105;BME280;38103;42.776;23.112;2023-12-14T08:25:14;93029.03;;;9.27;92.44
52105;BME280;38103;42.776;23.112;2023-12-14T08:27:40;93028.31;;;9.37;90.33
52105;BME280;38103;42.776;23.112;2023-12-14T08:30:06;93019.69;;;9.47;91.43
52105;BME280;38103;42.776;23.112;2023-12-14T08:32:31;93019.22;;;9.50;91.09
52105;BME280;38103;42.776;23.112;2023-12-14T08:34:57;93021.94;;;9.61;91.05
52105;BME280;38103;42.776;23.112;2023-12-14T08:37:22;93029.28;;;9.59;90.39
52105;BME280;38103;42.776;23.112;2023-12-14T08:39:47;93037.25;;;9.64;89.76
52105;BME280;38103;42.776;23.112;2023-12-14T08:42:13;93059.03;;;9.82;90.68
52105;BME280;38103;42.776;23.112;2023-12-14T08:44:39;93056.44;;;9.87;89.40
52105;BME280;38103;42.776;23.112;2023-12-14T08:47:05;93056.47;;;9.92;88.83
52105;BME280;38103;42.776;23.112;2023-12-14T08:49:30;93052.59;;;10.05;88.60
52105;BME280;38103;42.776;23.112;2023-12-14T08:51:56;93052.97;;;10.20;88.29
52105;BME280;38103;42.776;23.112;2023-12-14T08:54:21;93048.25;;;10.27;87.41
52105;BME280;38103;42.776;23.112;2023-12-14T08:56:46;93052.25;;;10.30;86.90
52105;BME280;38103;42.776;23.112;2023-12-14T08:59:13;93053.09;;;10.41;86.82
52105;BME280;38103;42.776;23.112;2023-12-14T09:01:38;93039.91;;;10.46;88.66
52105;BME280;38103;42.776;23.112;2023-12-14T09:04:04;92998.59;;;10.29;87.79
52105;BME280;38103;42.776;23.112;2023-12-14T09:06:29;93044.75;;;10.59;88.26
52105;BME280;38103;42.776;23.112;2023-12-14T09:08:55;93029.34;;;10.46;88.48
52105;BME280;38103;42.776;23.112;2023-12-14T09:11:20;93039.47;;;10.59;88.01
52105;BME280;38103;42.776;23.112;2023-12-14T09:13:46;93018.31;;;10.59;88.14
52105;BME280;38103;42.776;23.112;2023-12-14T09:16:11;92992.88;;;10.43;88.67
52105;BME280;38103;42.776;23.112;2023-12-14T09:18:37;93026.28;;;10.65;90.22
52105;BME280;38103;42.776;23.112;2023-12-14T09:21:03;93034.19;;;10.59;90.83
52105;BME280;38103;42.776;23.112;2023-12-14T09:23:29;93034.09;;;10.49;92.11
52105;BME280;38103;42.776;23.112;2023-12-14T09:25:54;93044.09;;;10.42;94.06
52105;BME280;38103;42.776;23.112;2023-12-14T09:28:21;93040.94;;;10.39;94.52
52105;BME280;38103;42.776;23.112;2023-12-14T09:30:46;93052.53;;;10.33;95.92
52105;BME280;38103;42.776;23.112;2023-12-14T09:33:12;93050.13;;;10.32;96.44
52105;BME280;38103;42.776;23.112;2023-12-14T09:35:37;93058.31;;;10.30;96.46
52105;BME280;38103;42.776;23.112;2023-12-14T09:38:04;93045.59;;;10.22;98.46
52105;BME280;38103;42.776;23.112;2023-12-14T09:40:29;93022.22;;;10.03;100.00
52105;BME280;38103;42.776;23.112;2023-12-14T09:42:55;93037.06;;;10.09;100.00
52105;BME280;38103;42.776;23.112;2023-12-14T09:45:24;93038.41;;;10.12;100.00
52105;BME280;38103;42.776;23.112;2023-12-14T09:47:53;93022.22;;;10.03;100.00
52105;BME280;38103;42.776;23.112;2023-12-14T09:50:20;93034.94;;;10.11;100.00
52105;BME280;38103;42.776;23.112;2023-12-14T09:52:45;93031.78;;;10.09;100.00
52105;BME280;38103;42.776;23.112;2023-12-14T09:55:14;93048.94;;;10.06;100.00
52105;BME280;38103;42.776;23.112;2023-12-14T09:57:39;93045.97;;;10.03;100.00
52105;BME280;38103;42.776;23.112;2023-12-14T10:00:05;93028.81;;;10.00;100.00
52105;BME280;38103;42.776;23.112;2023-12-14T10:02:35;93017.41;;;9.89;100.00
52105;BME280;38103;42.776;23.112;2023-12-14T10:05:00;93011.31;;;9.89;100.00
52105;BME280;38103;42.776;23.112;2023-12-14T10:07:26;93020.50;;;9.81;100.00
52105;BME280;38103;42.776;23.112;2023-12-14T10:09:51;93030.50;;;9.79;100.00
52105;BME280;38103;42.776;23.112;2023-12-14T10:12:18;93005.25;;;9.55;100.00
52105;BME280;38103;42.776;23.112;2023-12-14T10:14:47;93029.38;;;9.69;100.00
52105;BME280;38103;42.776;23.112;2023-12-14T10:17:25;93042.03;;;9.67;100.00
52105;BME280;38103;42.776;23.112;2023-12-14T10:19:57;93045.72;;;9.66;100.00
52105;BME280;38103;42.776;23.112;2023-12-14T10:22:22;93037.47;;;9.57;100.00
52105;BME280;38103;42.776;23.112;2023-12-14T10:24:47;93065.19;;;9.60;100.00
52105;BME280;38103;42.776;23.112;2023-12-14T10:27:16;93065.16;;;9.55;100.00
52105;BME280;38103;42.776;23.112;2023-12-14T10:29:42;93062.47;;;9.49;100.00
52105;BME280;38103;42.776;23.112;2023-12-14T10:32:09;93074.00;;;9.43;100.00
52105;BME280;38103;42.776;23.112;2023-12-14T10:34:36;93081.91;;;9.43;100.00
52105;BME280;38103;42.776;23.112;2023-12-14T10:37:05;93094.44;;;9.31;100.00
52105;BME280;38103;42.776;23.112;2023-12-14T10:39:33;93088.03;;;9.21;100.00
52105;BME280;38103;42.776;23.112;2023-12-14T10:42:04;93086.63;;;9.13;100.00
52105;BME280;38103;42.776;23.112;2023-12-14T10:44:35;93099.94;;;9.01;100.00
52105;BME280;38103;42.776;23.112;2023-12-14T10:47:02;93109.88;;;8.94;100.00
52105;BME280;38103;42.776;23.112;2023-12-14T10:49:30;93116.06;;;8.82;100.00
52105;BME280;38103;42.776;23.112;2023-12-14T10:51:58;93115.84;;;8.67;100.00
52105;BME280;38103;42.776;23.112;2023-12-14T10:54:24;93125.19;;;8.57;100.00
52105;BME280;38103;42.776;23.112;2023-12-14T10:56:56;93127.69;;;8.47;100.00
52105;BME280;38103;42.776;23.112;2023-12-14T10:59:24;93141.25;;;8.38;100.00
52105;BME280;38103;42.776;23.112;2023-12-14T11:01:54;93140.63;;;8.31;100.00
52105;BME280;38103;42.776;23.112;2023-12-14T11:04:21;93142.06;;;8.22;100.00
52105;BME280;38103;42.776;23.112;2023-12-14T11:06:47;93155.63;;;8.13;100.00
52105;BME280;38103;42.776;23.112;2023-12-14T11:09:17;93141.09;;;8.11;100.00
52105;BME280;38103;42.776;23.112;2023-12-14T11:14:15;93149.72;;;8.06;100.00
52105;BME280;38103;42.776;23.112;2023-12-14T11:16:43;93152.75;;;7.98;100.00
52105;BME280;38103;42.776;23.112;2023-12-14T11:24:34;93168.75;;;7.79;100.00
52105;BME280;38103;42.776;23.112;2023-12-14T11:27:04;93170.25;;;7.75;100.00
52105;BME280;38103;42.776;23.112;2023-12-14T11:29:31;93162.56;;;7.73;100.00
52105;BME280;38103;42.776;23.112;2023-12-14T11:31:57;93166.88;;;7.62;100.00
52105;BME280;38103;42.776;23.112;2023-12-14T11:34:26;93169.97;;;7.59;100.00
52105;BME280;38103;42.776;23.112;2023-12-14T11:36:54;93175.94;;;7.54;100.00
52105;BME280;38103;42.776;23.112;2023-12-14T11:39:19;93183.41;;;7.45;100.00
52105;BME280;38103;42.776;23.112;2023-12-14T11:42:16;93204.91;;;7.42;100.00
52105;BME280;38103;42.776;23.112;2023-12-14T11:44:43;93213.16;;;7.34;100.00
52105;BME280;38103;42.776;23.112;2023-12-14T11:47:09;93205.19;;;7.29;100.00
52105;BME280;38103;42.776;23.112;2023-12-14T11:49:34;93194.00;;;7.21;100.00
52105;BME280;38103;42.776;23.112;2023-12-14T11:52:02;93192.63;;;7.07;100.00
52105;BME280;38103;42.776;23.112;2023-12-14T11:54:29;93218.00;;;7.13;100.00
52105;BME280;38103;42.776;23.112;2023-12-14T11:56:54;93213.34;;;7.03;100.00
52105;BME280;38103;42.776;23.112;2023-12-14T11:59:19;93211.28;;;6.93;100.00
52105;BME280;38103;42.776;23.112;2023-12-14T12:01:59;93208.66;;;6.93;100.00
52105;BME280;38103;42.776;23.112;2023-12-14T12:04:26;93209.13;;;6.90;100.00
52105;BME280;38103;42.776;23.112;2023-12-14T12:07:02;93219.63;;;6.90;100.00
52105;BME280;38103;42.776;23.112;2023-12-14T12:09:48;93218.03;;;6.89;100.00
52105;BME280;38103;42.776;23.112;2023-12-14T12:12:13;93163.00;;;6.46;100.00
52105;BME280;38103;42.776;23.112;2023-12-14T12:14:40;93212.53;;;6.78;100.00
52105;BME280;38103;42.776;23.112;2023-12-14T12:17:06;93221.47;;;6.77;100.00
52105;BME280;38103;42.776;23.112;2023-12-14T12:19:36;93218.38;;;6.80;100.00
52105;BME280;38103;42.776;23.112;2023-12-14T12:22:02;93232.31;;;6.81;100.00
52105;BME280;38103;42.776;23.112;2023-12-14T12:24:28;93216.78;;;6.79;100.00
52105;BME280;38103;42.776;23.112;2023-12-14T12:26:54;93220.31;;;6.73;100.00
52105;BME280;38103;42.776;23.112;2023-12-14T12:29:20;93227.06;;;6.69;100.00
52105;BME280;38103;42.776;23.112;2023-12-14T12:31:45;93230.13;;;6.66;100.00
52105;BME280;38103;42.776;23.112;2023-12-14T12:34:11;93221.25;;;6.67;100.00
52105;BME280;38103;42.776;23.112;2023-12-14T12:36:36;93240.63;;;6.66;100.00
52105;BME280;38103;42.776;23.112;2023-12-14T12:39:03;93233.09;;;6.57;100.00
52105;BME280;38103;42.776;23.112;2023-12-14T12:41:28;93188.91;;;6.30;100.00
52105;BME280;38103;42.776;23.112;2023-12-14T12:43:54;93233.31;;;6.44;100.00
52105;BME280;38103;42.776;23.112;2023-12-14T12:46:19;93226.47;;;6.43;100.00
52105;BME280;38103;42.776;23.112;2023-12-14T12:48:45;93223.28;;;6.41;100.00
52105;BME280;38103;42.776;23.112;2023-12-14T12:51:12;93191.44;;;6.06;100.00
52105;BME280;38103;42.776;23.112;2023-12-14T12:53:37;93227.38;;;6.36;100.00
52105;BME280;38103;42.776;23.112;2023-12-14T12:56:04;93233.06;;;6.33;100.00